createdAt,value
2018-07-04T00:00:26.776Z,18.50
2018-07-04T00:05:40.248Z,18.50
2018-07-04T00:08:19.900Z,18.40
2018-07-04T00:10:59.514Z,18.40
2018-07-04T00:13:39.175Z,18.30
2018-07-04T00:16:18.816Z,18.30
2018-07-04T00:18:58.407Z,18.20
2018-07-04T00:21:38.080Z,18.30
2018-07-04T00:24:17.728Z,18.20
2018-07-04T00:26:57.228Z,18.20
2018-07-04T00:29:36.647Z,18.20
2018-07-04T00:32:16.159Z,18.10
2018-07-04T00:34:55.890Z,18.10
2018-07-04T00:40:09.249Z,17.90
2018-07-04T00:45:22.372Z,17.90
2018-07-04T00:48:01.995Z,17.90
2018-07-04T00:50:41.842Z,17.90
2018-07-04T00:53:21.530Z,17.90
2018-07-04T00:56:01.218Z,17.80
2018-07-04T00:58:41.011Z,17.90
2018-07-04T01:01:20.697Z,17.90
2018-07-04T01:04:00.344Z,17.90
2018-07-04T01:06:40.154Z,17.80
2018-07-04T01:09:19.897Z,17.80
2018-07-04T01:11:59.610Z,17.70
2018-07-04T01:14:39.289Z,17.70
2018-07-04T01:17:19.035Z,17.70
2018-07-04T01:19:58.758Z,17.70
2018-07-04T01:22:38.416Z,17.70
2018-07-04T01:25:17.853Z,17.60
2018-07-04T01:27:57.616Z,17.60
2018-07-04T01:30:37.334Z,17.50
2018-07-04T01:33:16.919Z,17.50
2018-07-04T01:35:56.437Z,17.40
2018-07-04T01:38:36.054Z,17.30
2018-07-04T01:41:15.718Z,17.20
2018-07-04T01:43:55.441Z,17.20
2018-07-04T01:46:35.295Z,17.00
2018-07-04T01:49:14.936Z,16.90
2018-07-04T01:51:54.579Z,16.90
2018-07-04T01:54:34.250Z,16.90
2018-07-04T01:57:13.867Z,16.90
2018-07-04T01:59:53.545Z,16.80
2018-07-04T02:02:33.357Z,16.70
2018-07-04T02:05:13.105Z,16.70
2018-07-04T02:07:52.740Z,16.70
2018-07-04T02:10:32.282Z,16.60
2018-07-04T02:13:11.878Z,16.50
2018-07-04T02:15:51.402Z,16.50
2018-07-04T02:18:31.188Z,16.40
2018-07-04T02:21:10.951Z,16.40
2018-07-04T02:23:50.566Z,16.40
2018-07-04T02:26:30.351Z,16.40
2018-07-04T02:29:09.881Z,16.30
2018-07-04T02:31:49.496Z,16.30
2018-07-04T02:34:29.162Z,16.30
2018-07-04T02:37:09.118Z,16.30
2018-07-04T02:39:48.659Z,16.30
2018-07-04T02:42:28.160Z,16.30
2018-07-04T02:45:08.045Z,16.20
2018-07-04T02:47:47.763Z,16.20
2018-07-04T02:50:27.531Z,16.20
2018-07-04T02:53:07.256Z,16.20
2018-07-04T02:55:46.927Z,16.20
2018-07-04T02:58:26.572Z,16.20
2018-07-04T03:01:06.207Z,16.20
2018-07-04T03:03:45.963Z,16.30
2018-07-04T03:06:25.501Z,16.30
2018-07-04T03:09:05.046Z,16.20
2018-07-04T03:11:44.569Z,16.20
2018-07-04T03:14:24.217Z,16.20
2018-07-04T03:17:03.731Z,16.20
2018-07-04T03:19:43.317Z,16.20
2018-07-04T03:22:22.914Z,16.10
2018-07-04T03:25:02.658Z,16.10
2018-07-04T03:27:42.418Z,16.20
2018-07-04T03:30:22.069Z,16.10
2018-07-04T03:33:01.969Z,16.10
2018-07-04T03:35:41.760Z,16.10
2018-07-04T03:38:21.397Z,16.10
2018-07-04T03:41:00.987Z,16.10
2018-07-04T03:46:14.362Z,16.30
2018-07-04T03:48:54.187Z,16.30
2018-07-04T03:51:33.791Z,16.40
2018-07-04T03:54:13.530Z,16.40
2018-07-04T03:56:53.175Z,16.30
2018-07-04T03:59:32.827Z,16.30
2018-07-04T04:02:12.457Z,16.30
2018-07-04T04:04:52.040Z,16.30
2018-07-04T04:10:05.354Z,16.60
2018-07-04T04:12:45.002Z,16.70
2018-07-04T04:15:24.641Z,16.70
2018-07-04T04:18:04.272Z,16.70
2018-07-04T04:20:44.020Z,16.70
2018-07-04T04:23:23.770Z,16.70
2018-07-04T04:26:03.511Z,16.70
2018-07-04T04:28:43.256Z,16.80
2018-07-04T04:31:22.916Z,16.80
2018-07-04T04:34:02.623Z,16.80
2018-07-04T04:36:42.391Z,16.90
2018-07-04T04:39:22.003Z,16.90
2018-07-04T04:42:01.775Z,16.90
2018-07-04T04:44:41.402Z,17.00
2018-07-04T04:47:21.218Z,17.10
2018-07-04T04:50:00.911Z,17.20
2018-07-04T04:52:40.532Z,17.30
2018-07-04T04:55:20.254Z,17.30
2018-07-04T04:57:59.941Z,17.40
2018-07-04T05:00:39.659Z,17.50
2018-07-04T05:03:19.536Z,17.70
2018-07-04T05:05:59.174Z,17.80
2018-07-04T05:08:38.711Z,17.90
2018-07-04T05:11:18.551Z,18.10
2018-07-04T05:13:58.182Z,18.20
2018-07-04T05:16:37.871Z,18.30
2018-07-04T05:19:17.490Z,18.40
2018-07-04T05:21:57.179Z,18.60
2018-07-04T05:24:36.870Z,18.70
2018-07-04T05:27:16.419Z,18.80
2018-07-04T05:29:56.141Z,18.90
2018-07-04T05:32:35.793Z,19.20
2018-07-04T05:35:15.479Z,19.30
2018-07-04T05:37:55.079Z,19.50
2018-07-04T05:40:34.620Z,19.70
2018-07-04T05:43:14.320Z,19.80
2018-07-04T05:45:54.008Z,20.00
2018-07-04T05:48:33.660Z,20.20
2018-07-04T05:53:46.721Z,20.60
2018-07-04T05:56:26.242Z,20.90
2018-07-04T05:59:05.736Z,21.50
2018-07-04T06:01:45.586Z,22.20
2018-07-04T06:04:25.177Z,22.90
2018-07-04T06:07:04.930Z,23.30
2018-07-04T06:12:19.513Z,23.20
2018-07-04T06:14:59.340Z,23.10
2018-07-04T06:17:39.003Z,22.90
2018-07-04T06:20:18.733Z,22.80
2018-07-04T06:22:58.376Z,22.80
2018-07-04T06:25:37.990Z,23.00
2018-07-04T06:28:17.699Z,23.10
2018-07-04T06:30:57.407Z,23.20
2018-07-04T06:33:37.153Z,23.20
2018-07-04T06:36:16.845Z,23.10
2018-07-04T06:38:44.025Z,23.10
2018-07-04T06:41:11.246Z,23.00
2018-07-04T06:43:38.453Z,23.00
2018-07-04T06:46:05.720Z,23.10
2018-07-04T06:48:32.907Z,23.20
2018-07-04T06:51:00.076Z,23.10
2018-07-04T06:53:27.292Z,23.10
2018-07-04T06:55:54.465Z,23.10
2018-07-04T06:58:21.659Z,23.00
2018-07-04T07:00:48.863Z,23.10
2018-07-04T07:03:28.486Z,23.30
2018-07-04T07:06:08.199Z,23.40
2018-07-04T07:08:47.783Z,23.50
2018-07-04T07:11:27.481Z,23.70
2018-07-04T07:14:07.247Z,23.70
2018-07-04T07:16:46.925Z,23.70
2018-07-04T07:19:26.874Z,23.80
2018-07-04T07:22:06.430Z,23.80
2018-07-04T07:24:46.130Z,23.70
2018-07-04T07:27:26.016Z,23.80
2018-07-04T07:30:05.737Z,23.90
2018-07-04T07:32:45.440Z,24.10
2018-07-04T07:35:24.870Z,24.20
2018-07-04T07:38:04.541Z,24.20
2018-07-04T07:40:44.374Z,24.30
2018-07-04T07:43:23.983Z,24.40
2018-07-04T07:46:03.665Z,24.60
2018-07-04T07:48:43.515Z,25.00
2018-07-04T07:51:23.234Z,25.70
2018-07-04T07:56:36.206Z,26.80
2018-07-04T07:59:15.738Z,27.60
2018-07-04T08:01:55.559Z,28.00
2018-07-04T08:04:35.243Z,28.00
2018-07-04T08:07:15.015Z,28.00
2018-07-04T08:09:54.586Z,28.70
2018-07-04T08:12:34.157Z,29.00
2018-07-04T08:15:13.656Z,29.00
2018-07-04T08:17:53.091Z,28.90
2018-07-04T08:20:32.618Z,28.70
2018-07-04T08:23:12.158Z,28.30
2018-07-04T08:25:51.766Z,27.80
2018-07-04T08:28:31.328Z,27.40
2018-07-04T08:31:11.041Z,27.00
2018-07-04T08:33:50.563Z,26.70
2018-07-04T08:36:30.094Z,26.50
2018-07-04T08:39:09.598Z,26.30
2018-07-04T08:41:49.201Z,26.30
2018-07-04T08:47:02.343Z,26.50
2018-07-04T08:49:41.959Z,26.60
2018-07-04T08:52:21.631Z,26.50
2018-07-04T08:55:01.280Z,26.60
2018-07-04T08:57:41.040Z,26.50
2018-07-04T09:00:20.695Z,26.50
2018-07-04T09:03:00.273Z,26.60
2018-07-04T09:05:40.025Z,26.70
2018-07-04T09:08:19.689Z,26.90
2018-07-04T09:10:59.346Z,27.00
2018-07-04T09:13:38.994Z,27.10
2018-07-04T09:18:52.354Z,27.10
2018-07-04T09:21:32.041Z,27.10
2018-07-04T09:24:11.815Z,27.20
2018-07-04T09:26:51.421Z,27.30
2018-07-04T09:29:31.100Z,27.10
2018-07-04T09:32:10.820Z,27.10
2018-07-04T09:34:50.563Z,27.00
2018-07-04T09:37:30.279Z,27.00
2018-07-04T09:40:10.075Z,27.10
2018-07-04T09:42:49.740Z,27.30
2018-07-04T09:45:29.325Z,27.60
2018-07-04T09:48:09.039Z,27.70
2018-07-04T09:50:48.784Z,27.50
2018-07-04T09:53:28.654Z,27.60
2018-07-04T09:56:08.206Z,27.70
2018-07-04T09:58:47.928Z,27.80
2018-07-04T10:01:27.597Z,27.90
2018-07-04T10:04:07.399Z,27.90
2018-07-04T10:06:47.023Z,27.90
2018-07-04T10:09:26.478Z,27.90
2018-07-04T10:12:05.991Z,27.90
2018-07-04T10:14:45.503Z,27.90
2018-07-04T10:17:25.119Z,28.00
2018-07-04T10:20:04.757Z,28.10
2018-07-04T10:22:44.466Z,28.10
2018-07-04T10:25:24.191Z,28.10
2018-07-04T10:28:03.700Z,28.10
2018-07-04T10:30:43.201Z,28.10
2018-07-04T10:33:22.977Z,28.10
2018-07-04T10:36:02.691Z,28.10
2018-07-04T10:38:42.421Z,28.20
2018-07-04T10:41:22.129Z,28.20
2018-07-04T10:44:02.018Z,28.30
2018-07-04T10:46:41.592Z,28.40
2018-07-04T10:49:21.362Z,28.40
2018-07-04T10:52:00.867Z,28.40
2018-07-04T10:54:40.850Z,28.40
2018-07-04T10:57:20.415Z,28.50
2018-07-04T10:59:59.866Z,28.60
2018-07-04T11:02:39.398Z,28.60
2018-07-04T11:10:26.357Z,28.90
2018-07-04T11:13:05.880Z,28.80
2018-07-04T11:15:45.416Z,28.70
2018-07-04T11:18:24.897Z,28.70
2018-07-04T11:21:04.497Z,28.70
2018-07-04T11:23:44.175Z,28.70
2018-07-04T11:26:24.016Z,28.70
2018-07-04T11:29:03.726Z,28.80
2018-07-04T11:31:43.326Z,28.90
2018-07-04T11:34:23.247Z,28.90
2018-07-04T11:37:03.005Z,29.00
2018-07-04T11:39:42.638Z,29.10
2018-07-04T11:42:23.252Z,29.10
2018-07-04T11:45:02.947Z,29.20
2018-07-04T11:47:30.172Z,29.20
2018-07-04T11:49:57.364Z,29.10
2018-07-04T11:52:24.579Z,29.20
2018-07-04T11:54:51.763Z,29.10
2018-07-04T11:57:18.949Z,29.20
2018-07-04T11:59:46.198Z,29.10
2018-07-04T12:02:13.481Z,29.30
2018-07-04T12:04:53.138Z,29.40
2018-07-04T12:07:20.378Z,29.50
2018-07-04T12:09:47.571Z,29.50
2018-07-04T12:14:42.290Z,29.50
2018-07-04T12:17:09.523Z,29.50
2018-07-04T12:19:36.779Z,29.50
2018-07-04T12:24:31.491Z,29.40
2018-07-04T12:26:58.733Z,29.40
2018-07-04T12:29:25.896Z,29.50
2018-07-04T12:31:53.180Z,29.40
2018-07-04T12:34:20.391Z,29.40
2018-07-04T12:36:47.656Z,29.30
2018-07-04T12:39:14.862Z,29.40
2018-07-04T12:41:42.139Z,29.40
2018-07-04T12:44:09.381Z,29.60
2018-07-04T12:46:36.591Z,29.70
2018-07-04T12:49:05.022Z,29.80
2018-07-04T12:51:33.502Z,29.90
2018-07-04T12:54:06.359Z,29.90
2018-07-04T12:56:46.519Z,29.80
2018-07-04T12:59:26.217Z,29.90
2018-07-04T13:02:06.020Z,30.00
2018-07-04T13:04:45.958Z,29.90
2018-07-04T13:07:25.899Z,29.80
2018-07-04T13:10:05.474Z,29.70
2018-07-04T13:12:45.234Z,29.70
2018-07-04T13:15:25.235Z,29.70
2018-07-04T13:18:04.956Z,29.50
2018-07-04T13:20:44.493Z,29.70
2018-07-04T13:23:24.041Z,29.70
2018-07-04T13:26:03.718Z,28.50
2018-07-04T13:28:43.422Z,29.90
2018-07-04T13:31:23.102Z,29.90
2018-07-04T13:34:02.631Z,29.90
2018-07-04T13:36:42.321Z,29.90
2018-07-04T13:39:22.015Z,30.00
2018-07-04T13:42:01.662Z,29.90
2018-07-04T13:44:41.303Z,29.80
2018-07-04T13:47:20.996Z,29.70
2018-07-04T13:50:00.727Z,29.70
2018-07-04T13:52:40.718Z,29.80
2018-07-04T13:55:20.975Z,29.90
2018-07-04T13:58:02.465Z,29.90
2018-07-04T14:00:42.146Z,29.90
2018-07-04T14:03:21.752Z,29.90
2018-07-04T14:06:01.465Z,30.00
2018-07-04T14:08:41.367Z,30.00
2018-07-04T14:11:21.458Z,30.10
2018-07-04T14:14:01.123Z,30.10
2018-07-04T14:16:40.854Z,30.00
2018-07-04T14:19:20.941Z,30.00
2018-07-04T14:22:00.638Z,30.00
2018-07-04T14:24:40.185Z,30.00
2018-07-04T14:27:19.917Z,30.10
2018-07-04T14:29:59.701Z,30.10
2018-07-04T14:32:39.308Z,30.10
2018-07-04T14:35:19.082Z,30.10
2018-07-04T14:37:58.698Z,30.20
2018-07-04T14:40:38.237Z,30.20
2018-07-04T14:43:17.865Z,30.20
2018-07-04T14:45:57.309Z,30.20
2018-07-04T14:48:36.986Z,30.20
2018-07-04T14:51:16.634Z,30.10
2018-07-04T14:53:56.200Z,30.10
2018-07-04T14:56:35.899Z,30.10
2018-07-04T14:59:15.619Z,30.10
2018-07-04T15:01:55.285Z,30.10
2018-07-04T15:04:35.112Z,30.20
2018-07-04T15:07:14.653Z,30.10
2018-07-04T15:09:54.283Z,30.10
2018-07-04T15:12:33.925Z,30.00
2018-07-04T15:15:13.509Z,30.00
2018-07-04T15:17:53.019Z,30.00
2018-07-04T15:20:32.722Z,30.10
2018-07-04T15:23:12.553Z,30.10
2018-07-04T15:25:52.292Z,30.10
2018-07-04T15:28:31.928Z,30.10
2018-07-04T15:31:11.815Z,30.20
2018-07-04T15:33:51.491Z,30.10
2018-07-04T15:36:31.254Z,30.00
2018-07-04T15:39:10.946Z,30.00
2018-07-04T15:41:50.445Z,30.00
2018-07-04T15:44:30.250Z,30.00
2018-07-04T15:47:10.040Z,29.90
2018-07-04T15:49:49.681Z,29.90
2018-07-04T15:52:29.499Z,29.80
2018-07-04T15:55:08.970Z,29.80
2018-07-04T15:57:48.428Z,29.70
2018-07-04T16:00:30.300Z,29.80
2018-07-04T16:03:10.371Z,29.80
2018-07-04T16:05:50.369Z,29.80
2018-07-04T16:08:29.919Z,29.80
2018-07-04T16:11:09.749Z,29.80
2018-07-04T16:13:50.412Z,29.80
2018-07-04T16:16:29.941Z,29.80
2018-07-04T16:19:09.679Z,29.80
2018-07-04T16:21:49.589Z,29.80
2018-07-04T16:24:29.202Z,29.80
2018-07-04T16:27:09.085Z,29.70
2018-07-04T16:29:48.874Z,29.60
2018-07-04T16:32:28.818Z,29.60
2018-07-04T16:35:08.480Z,29.60
2018-07-04T16:37:48.308Z,29.60
2018-07-04T16:40:28.163Z,29.70
2018-07-04T16:43:07.812Z,29.60
2018-07-04T16:45:47.814Z,29.50
2018-07-04T16:48:27.628Z,29.50
2018-07-04T16:51:07.360Z,29.50
2018-07-04T16:53:47.164Z,29.50
2018-07-04T16:56:26.777Z,29.50
2018-07-04T16:59:06.500Z,29.40
2018-07-04T17:01:46.241Z,29.30
2018-07-04T17:04:26.105Z,29.30
2018-07-04T17:07:05.607Z,29.30
2018-07-04T17:09:45.366Z,29.20
2018-07-04T17:12:25.081Z,29.20
2018-07-04T17:15:04.720Z,29.20
2018-07-04T17:17:44.420Z,29.20
2018-07-04T17:20:24.091Z,29.20
2018-07-04T17:23:03.872Z,29.10
2018-07-04T17:25:43.504Z,29.10
2018-07-04T17:28:23.342Z,29.10
2018-07-04T17:38:43.892Z,28.80
2018-07-04T17:41:23.497Z,28.80
2018-07-04T17:44:02.965Z,28.80
2018-07-04T17:46:42.691Z,28.70
2018-07-04T17:49:22.194Z,28.80
2018-07-04T17:52:01.879Z,28.70
2018-07-04T17:54:41.652Z,28.70
2018-07-04T17:57:21.293Z,28.70
2018-07-04T18:00:00.927Z,28.60
2018-07-04T18:02:40.514Z,28.60
2018-07-04T18:05:20.259Z,28.50
2018-07-04T18:08:00.097Z,28.50
2018-07-04T18:10:39.633Z,28.30
2018-07-04T18:13:19.279Z,28.30
2018-07-04T18:15:58.888Z,28.20
2018-07-04T18:18:38.569Z,28.10
2018-07-04T18:21:25.639Z,28.00
2018-07-04T18:24:06.585Z,28.00
2018-07-04T18:26:46.207Z,28.00
2018-07-04T18:31:59.293Z,28.10
2018-07-04T18:34:38.891Z,28.10
2018-07-04T18:37:18.632Z,28.10
2018-07-04T18:39:58.222Z,28.00
2018-07-04T18:42:37.878Z,27.90
2018-07-04T18:45:17.545Z,27.80
2018-07-04T18:47:57.397Z,27.70
2018-07-04T18:50:36.841Z,27.60
2018-07-04T18:53:16.608Z,27.60
2018-07-04T18:55:56.692Z,27.40
2018-07-04T18:58:38.146Z,27.30
2018-07-04T19:01:18.005Z,27.30
2018-07-04T19:03:57.609Z,27.20
2018-07-04T19:06:37.275Z,27.10
2018-07-04T19:09:16.789Z,27.00
2018-07-04T19:11:56.328Z,27.00
2018-07-04T19:14:35.974Z,26.90
2018-07-04T19:17:15.640Z,26.80
2018-07-04T19:19:55.167Z,26.70
2018-07-04T19:22:34.897Z,26.70
2018-07-04T19:25:14.708Z,26.50
2018-07-04T19:27:54.487Z,26.50
2018-07-04T19:30:34.099Z,26.30
2018-07-04T19:33:13.837Z,26.20
2018-07-04T19:35:53.591Z,26.10
2018-07-04T19:38:33.227Z,25.90
2018-07-04T19:43:46.599Z,25.70
2018-07-04T19:46:26.374Z,25.60
2018-07-04T19:49:05.899Z,25.50
2018-07-04T19:51:45.474Z,25.40
2018-07-04T19:54:25.063Z,25.30
2018-07-04T19:57:04.705Z,25.30
2018-07-04T19:59:44.352Z,25.40
2018-07-04T20:02:24.011Z,25.30
2018-07-04T20:05:03.608Z,25.30
2018-07-04T20:07:43.199Z,25.30
2018-07-04T20:10:22.882Z,25.20
2018-07-04T20:13:02.578Z,25.20
2018-07-04T20:15:42.233Z,25.00
2018-07-04T20:18:21.922Z,25.00
2018-07-04T20:21:01.763Z,24.90
2018-07-04T20:23:41.418Z,24.90
2018-07-04T20:26:21.007Z,24.80
2018-07-04T20:29:00.608Z,24.70
2018-07-04T20:31:40.221Z,24.60
2018-07-04T20:34:20.008Z,24.60
2018-07-04T20:36:59.635Z,24.50
2018-07-04T20:39:39.221Z,24.40
2018-07-04T20:42:18.836Z,24.30
2018-07-04T20:44:58.460Z,24.20
2018-07-04T20:47:38.175Z,24.10
2018-07-04T20:50:17.822Z,24.00
2018-07-04T20:52:57.343Z,23.90
2018-07-04T20:55:36.971Z,23.70
2018-07-04T20:58:16.513Z,23.60
2018-07-04T21:00:55.953Z,23.50
2018-07-04T21:06:08.989Z,23.30
2018-07-04T21:08:48.574Z,23.20
2018-07-04T21:11:28.385Z,23.10
2018-07-04T21:14:07.852Z,23.00
2018-07-04T21:16:47.440Z,23.00
2018-07-04T21:19:27.030Z,22.90
2018-07-04T21:22:06.724Z,22.90
2018-07-04T21:24:46.263Z,22.80
2018-07-04T21:27:25.891Z,22.70
2018-07-04T21:30:05.488Z,22.70
2018-07-04T21:32:45.238Z,22.70
2018-07-04T21:35:25.024Z,22.70
2018-07-04T21:38:04.774Z,22.60
2018-07-04T21:40:44.421Z,20.80
2018-07-04T21:43:24.028Z,22.50
2018-07-04T21:46:03.703Z,22.40
2018-07-04T21:48:43.528Z,22.30
2018-07-04T21:51:23.305Z,22.20
2018-07-04T21:54:02.902Z,22.10
2018-07-04T21:56:42.586Z,22.00
2018-07-04T21:59:22.469Z,21.90
2018-07-04T22:02:02.246Z,21.80
2018-07-04T22:04:41.848Z,21.80
2018-07-04T22:07:21.635Z,21.80
2018-07-04T22:10:01.244Z,21.90
2018-07-04T22:12:40.863Z,21.90
2018-07-04T22:15:20.538Z,21.90
2018-07-04T22:18:00.333Z,21.90
2018-07-04T22:20:40.018Z,21.90
2018-07-04T22:23:19.383Z,22.00
2018-07-04T22:25:58.865Z,21.90
2018-07-04T22:28:38.435Z,21.80
2018-07-04T22:31:18.141Z,21.80
2018-07-04T22:33:57.680Z,21.70
2018-07-04T22:36:37.228Z,21.50
2018-07-04T22:39:17.008Z,21.40
2018-07-04T22:41:56.702Z,21.40
2018-07-04T22:44:36.449Z,21.40
2018-07-04T22:47:16.195Z,21.30
2018-07-04T22:52:29.690Z,21.30
2018-07-04T22:55:09.287Z,21.30
2018-07-04T22:57:48.986Z,21.30
2018-07-04T23:00:28.478Z,21.30
2018-07-04T23:03:08.020Z,21.20
2018-07-04T23:05:47.767Z,21.10
2018-07-04T23:08:27.203Z,21.10
2018-07-04T23:11:06.894Z,21.00
2018-07-04T23:13:46.746Z,20.90
2018-07-04T23:16:26.362Z,20.90
2018-07-04T23:19:05.966Z,20.80
2018-07-04T23:21:45.610Z,20.80
2018-07-04T23:24:25.354Z,20.80
2018-07-04T23:27:05.166Z,20.80
2018-07-04T23:29:44.852Z,20.80
2018-07-04T23:32:24.449Z,20.70
2018-07-04T23:35:04.135Z,20.60
2018-07-04T23:37:43.780Z,20.50
2018-07-04T23:40:23.443Z,20.60
2018-07-04T23:43:03.163Z,20.50
2018-07-04T23:45:42.855Z,20.40
2018-07-04T23:48:22.346Z,20.40
2018-07-04T23:51:01.916Z,20.40
2018-07-04T23:53:41.494Z,20.40
2018-07-04T23:56:21.262Z,20.40
2018-07-04T23:59:00.844Z,20.40
